sensor_id;sensor_type;location;lat;lon;timestamp;pressure;altitude;pressure_sealevel;temperature;humidity
22311;BME280;11323;49.610;11.016;2023-09-19T00:01:33;97728.59;;;17.94;72.73
22311;BME280;11323;49.610;11.016;2023-09-19T00:06:34;97719.03;;;17.86;73.01
22311;BME280;11323;49.610;11.016;2023-09-19T00:11:36;97722.50;;;17.87;73.24
22311;BME280;11323;49.610;11.016;2023-09-19T00:16:37;97719.84;;;17.80;73.08
22311;BME280;11323;49.610;11.016;2023-09-19T00:21:38;97734.66;;;17.74;72.90
22311;BME280;11323;49.610;11.016;2023-09-19T00:26:38;97745.19;;;17.74;72.65
22311;BME280;11323;49.610;11.016;2023-09-19T00:31:39;97740.91;;;17.67;72.70
22311;BME280;11323;49.610;11.016;2023-09-19T00:36:40;97747.78;;;17.61;72.83
22311;BME280;11323;49.610;11.016;2023-09-19T00:41:40;97749.81;;;17.59;73.06
22311;BME280;11323;49.610;11.016;2023-09-19T00:46:41;97752.06;;;17.62;73.30
22311;BME280;11323;49.610;11.016;2023-09-19T00:51:42;97757.72;;;17.59;72.88
22311;BME280;11323;49.610;11.016;2023-09-19T00:56:47;97757.50;;;17.54;73.19
22311;BME280;11323;49.610;11.016;2023-09-19T01:01:49;97756.28;;;17.50;72.97
22311;BME280;11323;49.610;11.016;2023-09-19T01:06:54;97757.66;;;17.45;72.82
22311;BME280;11323;49.610;11.016;2023-09-19T01:11:58;97774.31;;;17.46;73.02
22311;BME280;11323;49.610;11.016;2023-09-19T01:17:16;97774.66;;;17.36;72.99
22311;BME280;11323;49.610;11.016;2023-09-19T01:23:00;97777.28;;;17.36;73.22
22311;BME280;11323;49.610;11.016;2023-09-19T01:34:01;97790.88;;;17.33;73.23
22311;BME280;11323;49.610;11.016;2023-09-19T01:39:07;97790.44;;;17.29;72.68
22311;BME280;11323;49.610;11.016;2023-09-19T01:44:17;97786.22;;;17.35;73.08
22311;BME280;11323;49.610;11.016;2023-09-19T01:49:39;97789.84;;;17.34;73.03
22311;BME280;11323;49.610;11.016;2023-09-19T01:54:56;97792.72;;;17.39;73.30
22311;BME280;11323;49.610;11.016;2023-09-19T02:00:06;97792.53;;;17.48;72.79
22311;BME280;11323;49.610;11.016;2023-09-19T02:05:13;97795.59;;;17.51;72.96
22311;BME280;11323;49.610;11.016;2023-09-19T02:10:22;97794.78;;;17.51;73.15
22311;BME280;11323;49.610;11.016;2023-09-19T02:15:26;97791.34;;;17.50;72.81
22311;BME280;11323;49.610;11.016;2023-09-19T02:20:26;97807.16;;;17.57;72.90
22311;BME280;11323;49.610;11.016;2023-09-19T02:25:26;97799.88;;;17.59;73.36
22311;BME280;11323;49.610;11.016;2023-09-19T02:30:28;97809.41;;;17.60;72.91
22311;BME280;11323;49.610;11.016;2023-09-19T02:35:30;97814.06;;;17.58;73.04
22311;BME280;11323;49.610;11.016;2023-09-19T02:40:36;97804.72;;;17.55;72.99
22311;BME280;11323;49.610;11.016;2023-09-19T02:45:36;97808.19;;;17.56;73.27
22311;BME280;11323;49.610;11.016;2023-09-19T02:50:37;97813.47;;;17.56;72.90
22311;BME280;11323;49.610;11.016;2023-09-19T02:55:38;97818.91;;;17.54;72.94
22311;BME280;11323;49.610;11.016;2023-09-19T03:00:40;97819.13;;;17.53;73.48
22311;BME280;11323;49.610;11.016;2023-09-19T03:05:42;97823.97;;;17.49;73.67
22311;BME280;11323;49.610;11.016;2023-09-19T03:10:47;97816.47;;;17.46;72.95
22311;BME280;11323;49.610;11.016;2023-09-19T03:15:48;97827.78;;;17.47;73.23
22311;BME280;11323;49.610;11.016;2023-09-19T03:20:54;97831.00;;;17.42;72.89
22311;BME280;11323;49.610;11.016;2023-09-19T03:25:56;97833.22;;;17.38;72.85
22311;BME280;11323;49.610;11.016;2023-09-19T03:31:04;97840.75;;;17.41;73.27
22311;BME280;11323;49.610;11.016;2023-09-19T03:36:08;97838.47;;;17.32;72.76
22311;BME280;11323;49.610;11.016;2023-09-19T03:41:08;97830.94;;;17.28;73.17
22311;BME280;11323;49.610;11.016;2023-09-19T03:46:10;97842.94;;;17.31;73.04
22311;BME280;11323;49.610;11.016;2023-09-19T03:51:13;97847.97;;;17.26;73.38
22311;BME280;11323;49.610;11.016;2023-09-19T03:56:14;97845.13;;;17.21;72.97
22311;BME280;11323;49.610;11.016;2023-09-19T04:01:15;97861.91;;;17.20;72.92
22311;BME280;11323;49.610;11.016;2023-09-19T04:06:17;97865.72;;;17.17;73.15
22311;BME280;11323;49.610;11.016;2023-09-19T04:11:18;97866.19;;;17.21;73.48
22311;BME280;11323;49.610;11.016;2023-09-19T04:16:20;97871.66;;;17.26;73.74
22311;BME280;11323;49.610;11.016;2023-09-19T04:21:20;97868.66;;;17.29;73.98
22311;BME280;11323;49.610;11.016;2023-09-19T04:26:21;97853.25;;;17.33;73.23
22311;BME280;11323;49.610;11.016;2023-09-19T04:31:22;97876.00;;;17.40;74.03
22311;BME280;11323;49.610;11.016;2023-09-19T04:36:22;97883.53;;;17.43;73.61
22311;BME280;11323;49.610;11.016;2023-09-19T04:41:23;97885.75;;;17.47;73.38
22311;BME280;11323;49.610;11.016;2023-09-19T04:46:23;97880.09;;;17.50;73.82
22311;BME280;11323;49.610;11.016;2023-09-19T04:51:24;97877.47;;;17.50;73.57
22311;BME280;11323;49.610;11.016;2023-09-19T04:56:25;97880.53;;;17.53;73.88
22311;BME280;11323;49.610;11.016;2023-09-19T05:01:26;97869.56;;;17.50;73.11
22311;BME280;11323;49.610;11.016;2023-09-19T05:06:27;97882.56;;;17.58;73.72
22311;BME280;11323;49.610;11.016;2023-09-19T05:11:32;97889.09;;;17.62;73.86
22311;BME280;11323;49.610;11.016;2023-09-19T05:16:32;97891.50;;;17.64;74.04
22311;BME280;11323;49.610;11.016;2023-09-19T05:21:32;97906.56;;;17.70;73.88
22311;BME280;11323;49.610;11.016;2023-09-19T05:26:33;97903.28;;;17.68;73.53
22311;BME280;11323;49.610;11.016;2023-09-19T05:31:34;97904.72;;;17.70;73.84
22311;BME280;11323;49.610;11.016;2023-09-19T05:36:36;97918.31;;;17.74;73.67
22311;BME280;11323;49.610;11.016;2023-09-19T05:41:39;97931.31;;;17.75;73.99
22311;BME280;11323;49.610;11.016;2023-09-19T05:46:41;97929.31;;;17.78;74.10
22311;BME280;11323;49.610;11.016;2023-09-19T05:51:41;97948.34;;;17.80;73.74
22311;BME280;11323;49.610;11.016;2023-09-19T05:56:42;97951.81;;;17.80;73.84
22311;BME280;11323;49.610;11.016;2023-09-19T06:01:45;97954.06;;;17.83;73.56
22311;BME280;11323;49.610;11.016;2023-09-19T06:06:47;97961.13;;;17.83;73.98
22311;BME280;11323;49.610;11.016;2023-09-19T06:11:48;97970.47;;;17.85;73.77
22311;BME280;11323;49.610;11.016;2023-09-19T06:16:49;97971.94;;;17.88;73.87
22311;BME280;11323;49.610;11.016;2023-09-19T06:21:49;97982.06;;;17.91;74.04
22311;BME280;11323;49.610;11.016;2023-09-19T06:26:50;97980.88;;;17.94;73.74
22311;BME280;11323;49.610;11.016;2023-09-19T06:31:50;97984.75;;;17.98;73.42
22311;BME280;11323;49.610;11.016;2023-09-19T06:36:51;97986.81;;;18.02;73.20
22311;BME280;11323;49.610;11.016;2023-09-19T06:41:52;97993.56;;;18.12;73.74
22311;BME280;11323;49.610;11.016;2023-09-19T06:46:59;97994.59;;;18.17;73.59
22311;BME280;11323;49.610;11.016;2023-09-19T06:51:59;97996.84;;;18.27;73.65
22311;BME280;11323;49.610;11.016;2023-09-19T06:56:59;98007.81;;;18.31;73.00
22311;BME280;11323;49.610;11.016;2023-09-19T07:02:00;98009.88;;;18.29;73.28
22311;BME280;11323;49.610;11.016;2023-09-19T07:07:00;98026.88;;;18.26;73.06
22311;BME280;11323;49.610;11.016;2023-09-19T07:12:02;98020.22;;;18.30;73.05
22311;BME280;11323;49.610;11.016;2023-09-19T07:17:04;98011.47;;;18.30;72.74
22311;BME280;11323;49.610;11.016;2023-09-19T07:22:05;98020.88;;;18.46;72.07
22311;BME280;11323;49.610;11.016;2023-09-19T07:27:08;98038.16;;;18.55;71.82
22311;BME280;11323;49.610;11.016;2023-09-19T07:32:09;98023.78;;;18.64;72.64
22311;BME280;11323;49.610;11.016;2023-09-19T07:37:10;98028.81;;;18.59;72.07
22311;BME280;11323;49.610;11.016;2023-09-19T07:42:11;98045.09;;;18.56;72.31
22311;BME280;11323;49.610;11.016;2023-09-19T07:47:17;98047.47;;;18.51;71.65
22311;BME280;11323;49.610;11.016;2023-09-19T07:52:18;98047.91;;;18.61;72.31
22311;BME280;11323;49.610;11.016;2023-09-19T07:57:19;98040.00;;;18.61;71.19
22311;BME280;11323;49.610;11.016;2023-09-19T08:02:20;98049.94;;;18.59;71.29
22311;BME280;11323;49.610;11.016;2023-09-19T08:07:20;98057.03;;;18.52;71.34
22311;BME280;11323;49.610;11.016;2023-09-19T08:12:22;98070.00;;;18.47;70.29
22311;BME280;11323;49.610;11.016;2023-09-19T08:17:23;98078.53;;;18.49;70.41
22311;BME280;11323;49.610;11.016;2023-09-19T08:22:24;98090.78;;;18.63;70.30
22311;BME280;11323;49.610;11.016;2023-09-19T08:27:24;98090.56;;;18.65;68.39
22311;BME280;11323;49.610;11.016;2023-09-19T08:32:28;98100.16;;;18.79;68.53
22311;BME280;11323;49.610;11.016;2023-09-19T08:37:28;98100.19;;;18.86;67.72
22311;BME280;11323;49.610;11.016;2023-09-19T08:42:29;98109.53;;;18.89;67.85
22311;BME280;11323;49.610;11.016;2023-09-19T08:47:50;98104.66;;;18.92;67.72
22311;BME280;11323;49.610;11.016;2023-09-19T08:52:55;98109.81;;;19.01;67.37
22311;BME280;11323;49.610;11.016;2023-09-19T08:58:03;98115.53;;;19.11;67.48
22311;BME280;11323;49.610;11.016;2023-09-19T09:03:04;98114.91;;;19.09;67.19
22311;BME280;11323;49.610;11.016;2023-09-19T09:08:09;98111.06;;;19.18;67.52
22311;BME280;11323;49.610;11.016;2023-09-19T09:13:12;98116.97;;;19.20;66.97
22311;BME280;11323;49.610;11.016;2023-09-19T09:18:14;98117.16;;;19.25;66.76
22311;BME280;11323;49.610;11.016;2023-09-19T09:23:14;98121.84;;;19.23;66.55
22311;BME280;11323;49.610;11.016;2023-09-19T09:28:20;98139.72;;;19.21;66.17
22311;BME280;11323;49.610;11.016;2023-09-19T09:33:21;98129.16;;;19.14;66.19
22311;BME280;11323;49.610;11.016;2023-09-19T09:38:26;98130.38;;;19.12;66.14
22311;BME280;11323;49.610;11.016;2023-09-19T09:43:38;98131.56;;;19.16;65.68
22311;BME280;11323;49.610;11.016;2023-09-19T09:48:40;98134.06;;;19.24;65.46
22311;BME280;11323;49.610;11.016;2023-09-19T09:53:46;98141.38;;;19.36;65.25
22311;BME280;11323;49.610;11.016;2023-09-19T09:58:50;98137.34;;;19.53;64.67
22311;BME280;11323;49.610;11.016;2023-09-19T10:03:58;98134.88;;;19.65;63.42
22311;BME280;11323;49.610;11.016;2023-09-19T10:09:07;98131.44;;;19.85;62.88
22311;BME280;11323;49.610;11.016;2023-09-19T10:14:11;98137.13;;;19.82;64.21
22311;BME280;11323;49.610;11.016;2023-09-19T10:19:40;98138.97;;;19.61;63.80
22311;BME280;11323;49.610;11.016;2023-09-19T10:24:47;98134.31;;;19.63;63.93
22311;BME280;11323;49.610;11.016;2023-09-19T10:29:49;98128.00;;;19.51;63.76
22311;BME280;11323;49.610;11.016;2023-09-19T10:34:55;98128.38;;;19.48;62.89
22311;BME280;11323;49.610;11.016;2023-09-19T10:39:57;98135.28;;;19.49;63.25
22311;BME280;11323;49.610;11.016;2023-09-19T10:44:59;98129.41;;;19.60;62.94
22311;BME280;11323;49.610;11.016;2023-09-19T10:50:01;98137.34;;;19.67;62.88
22311;BME280;11323;49.610;11.016;2023-09-19T10:55:01;98131.66;;;19.63;63.32
22311;BME280;11323;49.610;11.016;2023-09-19T11:00:06;98131.66;;;19.63;63.10
22311;BME280;11323;49.610;11.016;2023-09-19T11:05:26;98130.63;;;19.71;62.59
22311;BME280;11323;49.610;11.016;2023-09-19T11:10:46;98131.44;;;19.78;62.76
22311;BME280;11323;49.610;11.016;2023-09-19T11:26:41;98118.59;;;20.15;60.47
22311;BME280;11323;49.610;11.016;2023-09-19T11:31:47;98098.25;;;20.23;60.53
22311;BME280;11323;49.610;11.016;2023-09-19T11:36:49;98106.34;;;20.28;60.12
22311;BME280;11323;49.610;11.016;2023-09-19T11:41:50;98123.06;;;20.35;60.26
22311;BME280;11323;49.610;11.016;2023-09-19T11:46:56;98114.50;;;20.33;59.60
22311;BME280;11323;49.610;11.016;2023-09-19T11:52:00;98105.13;;;20.37;59.06
22311;BME280;11323;49.610;11.016;2023-09-19T11:57:01;98110.44;;;20.37;58.69
22311;BME280;11323;49.610;11.016;2023-09-19T12:02:07;98110.22;;;20.39;58.70
22311;BME280;11323;49.610;11.016;2023-09-19T12:07:10;98124.06;;;20.34;59.32
22311;BME280;11323;49.610;11.016;2023-09-19T12:12:20;98117.97;;;20.27;59.01
22311;BME280;11323;49.610;11.016;2023-09-19T12:17:20;98093.19;;;20.14;58.88
22311;BME280;11323;49.610;11.016;2023-09-19T12:22:24;98113.75;;;20.12;59.04
22311;BME280;11323;49.610;11.016;2023-09-19T12:27:25;98103.97;;;20.13;59.09
22311;BME280;11323;49.610;11.016;2023-09-19T12:32:36;98101.94;;;20.08;58.50
22311;BME280;11323;49.610;11.016;2023-09-19T12:37:44;98110.06;;;20.13;58.25
22311;BME280;11323;49.610;11.016;2023-09-19T12:42:54;98102.31;;;20.18;58.04
22311;BME280;11323;49.610;11.016;2023-09-19T12:48:25;98091.50;;;20.27;57.30
22311;BME280;11323;49.610;11.016;2023-09-19T12:53:35;98099.63;;;20.32;56.59
22311;BME280;11323;49.610;11.016;2023-09-19T12:58:58;98090.06;;;20.31;57.20
22311;BME280;11323;49.610;11.016;2023-09-19T13:04:20;98093.13;;;20.28;56.92
22311;BME280;11323;49.610;11.016;2023-09-19T13:09:28;98089.28;;;20.24;57.14
22311;BME280;11323;49.610;11.016;2023-09-19T13:14:34;98089.69;;;20.27;57.13
22311;BME280;11323;49.610;11.016;2023-09-19T13:19:42;98083.16;;;20.30;56.46
22311;BME280;11323;49.610;11.016;2023-09-19T13:24:45;98083.53;;;20.33;56.04
22311;BME280;11323;49.610;11.016;2023-09-19T13:29:51;98087.22;;;20.32;55.98
22311;BME280;11323;49.610;11.016;2023-09-19T13:34:51;98076.44;;;20.34;56.07
22311;BME280;11323;49.610;11.016;2023-09-19T13:39:52;98074.81;;;20.33;55.49
22311;BME280;11323;49.610;11.016;2023-09-19T13:44:53;98077.84;;;20.30;55.61
22311;BME280;11323;49.610;11.016;2023-09-19T13:49:54;98074.38;;;20.43;55.45
22311;BME280;11323;49.610;11.016;2023-09-19T13:54:54;98064.56;;;20.50;55.53
22311;BME280;11323;49.610;11.016;2023-09-19T13:59:58;98067.97;;;20.57;55.45
22311;BME280;11323;49.610;11.016;2023-09-19T14:04:58;98074.50;;;20.61;55.26
22311;BME280;11323;49.610;11.016;2023-09-19T14:09:58;98074.47;;;20.68;54.80
22311;BME280;11323;49.610;11.016;2023-09-19T14:14:59;98077.91;;;20.75;54.45
22311;BME280;11323;49.610;11.016;2023-09-19T14:19:59;98068.09;;;20.82;55.03
22311;BME280;11323;49.610;11.016;2023-09-19T14:25:03;98073.94;;;20.91;54.75
22311;BME280;11323;49.610;11.016;2023-09-19T14:30:05;98072.53;;;20.89;54.59
22311;BME280;11323;49.610;11.016;2023-09-19T14:35:07;98060.16;;;20.82;54.45
22311;BME280;11323;49.610;11.016;2023-09-19T14:40:13;98043.44;;;20.82;54.23
22311;BME280;11323;49.610;11.016;2023-09-19T14:45:19;98054.00;;;20.89;54.61
22311;BME280;11323;49.610;11.016;2023-09-19T14:50:19;98051.94;;;20.91;53.85
22311;BME280;11323;49.610;11.016;2023-09-19T14:55:20;98035.72;;;20.80;53.61
22311;BME280;11323;49.610;11.016;2023-09-19T15:00:23;98040.56;;;20.83;54.25
22311;BME280;11323;49.610;11.016;2023-09-19T15:05:24;98033.06;;;20.74;53.63
22311;BME280;11323;49.610;11.016;2023-09-19T15:10:24;98039.22;;;20.67;53.92
22311;BME280;11323;49.610;11.016;2023-09-19T15:15:25;98027.63;;;20.62;53.81
22311;BME280;11323;49.610;11.016;2023-09-19T15:20:25;98041.88;;;20.61;54.66
22311;BME280;11323;49.610;11.016;2023-09-19T15:25:26;98030.53;;;20.53;54.72
22311;BME280;11323;49.610;11.016;2023-09-19T15:30:27;98035.03;;;20.53;54.95
22311;BME280;11323;49.610;11.016;2023-09-19T15:35:28;98032.59;;;20.45;54.77
22311;BME280;11323;49.610;11.016;2023-09-19T15:40:28;98028.53;;;20.42;54.73
22311;BME280;11323;49.610;11.016;2023-09-19T15:45:29;98042.78;;;20.41;54.49
22311;BME280;11323;49.610;11.016;2023-09-19T15:50:30;98037.91;;;20.38;54.83
22311;BME280;11323;49.610;11.016;2023-09-19T15:55:31;98035.06;;;20.40;54.92
22311;BME280;11323;49.610;11.016;2023-09-19T16:00:32;98046.91;;;20.37;55.22
22311;BME280;11323;49.610;11.016;2023-09-19T16:05:35;98033.47;;;20.32;55.55
22311;BME280;11323;49.610;11.016;2023-09-19T16:10:37;98047.56;;;20.26;54.95
22311;BME280;11323;49.610;11.016;2023-09-19T16:15:43;98048.56;;;20.25;54.90
22311;BME280;11323;49.610;11.016;2023-09-19T16:20:47;98044.72;;;20.14;55.01
22311;BME280;11323;49.610;11.016;2023-09-19T16:25:47;98039.66;;;20.12;55.17
22311;BME280;11323;49.610;11.016;2023-09-19T16:31:09;98029.72;;;20.01;55.61
22311;BME280;11323;49.610;11.016;2023-09-19T16:37:01;98042.31;;;20.05;56.86
22311;BME280;11323;49.610;11.016;2023-09-19T16:42:04;98019.97;;;19.81;56.81
22311;BME280;11323;49.610;11.016;2023-09-19T16:47:05;98035.03;;;19.87;57.40
22311;BME280;11323;49.610;11.016;2023-09-19T16:52:06;98034.81;;;19.82;58.05
22311;BME280;11323;49.610;11.016;2023-09-19T16:57:06;98037.28;;;19.77;58.62
22311;BME280;11323;49.610;11.016;2023-09-19T17:02:06;98046.00;;;19.71;59.29
22311;BME280;11323;49.610;11.016;2023-09-19T17:07:07;98047.69;;;19.58;59.30
22311;BME280;11323;49.610;11.016;2023-09-19T17:12:09;98042.19;;;19.47;60.39
22311;BME280;11323;49.610;11.016;2023-09-19T17:17:13;98036.47;;;19.29;60.71
22311;BME280;11323;49.610;11.016;2023-09-19T17:22:13;98036.06;;;19.19;60.60
22311;BME280;11323;49.610;11.016;2023-09-19T17:27:14;98039.94;;;19.10;61.18
22311;BME280;11323;49.610;11.016;2023-09-19T17:32:14;98034.84;;;18.95;60.94
22311;BME280;11323;49.610;11.016;2023-09-19T17:37:15;98047.38;;;18.86;61.92
22311;BME280;11323;49.610;11.016;2023-09-19T17:42:15;98036.41;;;18.76;62.01
22311;BME280;11323;49.610;11.016;2023-09-19T17:47:16;98043.25;;;18.63;62.23
22311;BME280;11323;49.610;11.016;2023-09-19T17:52:18;98045.69;;;18.51;62.33
22311;BME280;11323;49.610;11.016;2023-09-19T17:57:21;98058.25;;;18.49;62.61
22311;BME280;11323;49.610;11.016;2023-09-19T18:02:23;98056.59;;;18.42;62.92
22311;BME280;11323;49.610;11.016;2023-09-19T18:07:23;98060.00;;;18.29;62.88
22311;BME280;11323;49.610;11.016;2023-09-19T18:12:24;98058.94;;;18.23;63.48
22311;BME280;11323;49.610;11.016;2023-09-19T18:17:24;98056.44;;;18.15;63.48
22311;BME280;11323;49.610;11.016;2023-09-19T18:22:24;98065.78;;;18.11;64.15
22311;BME280;11323;49.610;11.016;2023-09-19T18:27:25;98064.50;;;18.00;63.73
22311;BME280;11323;49.610;11.016;2023-09-19T18:32:25;98074.97;;;17.93;63.84
22311;BME280;11323;49.610;11.016;2023-09-19T18:37:27;98069.47;;;17.88;63.41
22311;BME280;11323;49.610;11.016;2023-09-19T18:42:28;98072.69;;;17.83;64.38
22311;BME280;11323;49.610;11.016;2023-09-19T18:47:29;98074.84;;;17.73;64.29
22311;BME280;11323;49.610;11.016;2023-09-19T18:52:31;98089.84;;;17.72;64.23
22311;BME280;11323;49.610;11.016;2023-09-19T18:57:32;98090.22;;;17.69;64.61
22311;BME280;11323;49.610;11.016;2023-09-19T19:02:36;98091.00;;;17.63;65.01
22311;BME280;11323;49.610;11.016;2023-09-19T19:07:38;98088.09;;;17.58;64.41
22311;BME280;11323;49.610;11.016;2023-09-19T19:12:38;98091.50;;;17.52;64.82
22311;BME280;11323;49.610;11.016;2023-09-19T19:17:39;98095.09;;;17.44;65.34
22311;BME280;11323;49.610;11.016;2023-09-19T19:22:39;98095.66;;;17.39;64.94
22311;BME280;11323;49.610;11.016;2023-09-19T19:27:41;98108.19;;;17.37;65.15
22311;BME280;11323;49.610;11.016;2023-09-19T19:32:41;98108.97;;;17.31;65.28
22311;BME280;11323;49.610;11.016;2023-09-19T19:37:43;98119.06;;;17.27;64.98
22311;BME280;11323;49.610;11.016;2023-09-19T19:42:43;98125.91;;;17.22;64.87
22311;BME280;11323;49.610;11.016;2023-09-19T19:47:44;98122.00;;;17.18;65.10
22311;BME280;11323;49.610;11.016;2023-09-19T19:52:53;98117.66;;;17.10;65.52
22311;BME280;11323;49.610;11.016;2023-09-19T19:57:56;98132.66;;;17.09;65.44
22311;BME280;11323;49.610;11.016;2023-09-19T20:02:59;98124.47;;;17.04;64.95
22311;BME280;11323;49.610;11.016;2023-09-19T20:07:59;98133.75;;;17.00;65.59
22311;BME280;11323;49.610;11.016;2023-09-19T20:12:59;98139.41;;;16.97;65.77
22311;BME280;11323;49.610;11.016;2023-09-19T20:18:04;98136.13;;;16.95;65.29
22311;BME280;11323;49.610;11.016;2023-09-19T20:23:08;98133.59;;;16.87;65.61
22311;BME280;11323;49.610;11.016;2023-09-19T20:28:10;98135.94;;;16.81;65.54
22311;BME280;11323;49.610;11.016;2023-09-19T20:33:10;98134.31;;;16.80;66.00
22311;BME280;11323;49.610;11.016;2023-09-19T20:38:12;98142.03;;;16.82;65.81
22311;BME280;11323;49.610;11.016;2023-09-19T20:43:16;98135.84;;;16.75;66.17
22311;BME280;11323;49.610;11.016;2023-09-19T20:48:18;98145.22;;;16.77;66.29
22311;BME280;11323;49.610;11.016;2023-09-19T20:53:21;98136.25;;;16.72;66.19
22311;BME280;11323;49.610;11.016;2023-09-19T20:58:22;98136.06;;;16.73;66.30
22311;BME280;11323;49.610;11.016;2023-09-19T21:03:22;98151.22;;;16.71;66.16
22311;BME280;11323;49.610;11.016;2023-09-19T21:08:23;98149.94;;;16.67;66.26
22311;BME280;11323;49.610;11.016;2023-09-19T21:13:23;98143.88;;;16.66;66.01
22311;BME280;11323;49.610;11.016;2023-09-19T21:18:23;98139.34;;;16.60;66.26
22311;BME280;11323;49.610;11.016;2023-09-19T21:23:24;98142.13;;;16.59;66.45
22311;BME280;11323;49.610;11.016;2023-09-19T21:28:26;98135.00;;;16.52;66.16
22311;BME280;11323;49.610;11.016;2023-09-19T21:33:27;98152.03;;;16.57;66.31
22311;BME280;11323;49.610;11.016;2023-09-19T21:38:29;98139.25;;;16.54;66.70
22311;BME280;11323;49.610;11.016;2023-09-19T21:43:29;98144.03;;;16.50;66.37
22311;BME280;11323;49.610;11.016;2023-09-19T21:48:30;98136.53;;;16.47;66.25
22311;BME280;11323;49.610;11.016;2023-09-19T21:53:31;98132.44;;;16.44;66.63
22311;BME280;11323;49.610;11.016;2023-09-19T21:58:35;98134.72;;;16.47;66.54
22311;BME280;11323;49.610;11.016;2023-09-19T22:03:38;98125.72;;;16.42;66.28
22311;BME280;11323;49.610;11.016;2023-09-19T22:08:39;98124.94;;;16.41;66.56
22311;BME280;11323;49.610;11.016;2023-09-19T22:13:40;98123.28;;;16.40;66.25
22311;BME280;11323;49.610;11.016;2023-09-19T22:18:47;98119.84;;;16.40;67.15
22311;BME280;11323;49.610;11.016;2023-09-19T22:23:50;98118.38;;;16.37;66.83
22311;BME280;11323;49.610;11.016;2023-09-19T22:28:53;98121.66;;;16.39;67.02
22311;BME280;11323;49.610;11.016;2023-09-19T22:33:55;98113.03;;;16.30;66.96
22311;BME280;11323;49.610;11.016;2023-09-19T22:38:55;98120.28;;;16.28;67.21
22311;BME280;11323;49.610;11.016;2023-09-19T22:43:59;98120.66;;;16.25;66.94
22311;BME280;11323;49.610;11.016;2023-09-19T22:49:00;98131.53;;;16.22;67.15
22311;BME280;11323;49.610;11.016;2023-09-19T22:54:04;98142.41;;;16.19;66.83
22311;BME280;11323;49.610;11.016;2023-09-19T22:59:11;98139.34;;;16.15;66.89
22311;BME280;11323;49.610;11.016;2023-09-19T23:04:12;98140.41;;;16.06;67.20
22311;BME280;11323;49.610;11.016;2023-09-19T23:09:13;98143.03;;;16.06;67.20
22311;BME280;11323;49.610;11.016;2023-09-19T23:14:17;98135.84;;;16.00;67.02
22311;BME280;11323;49.610;11.016;2023-09-19T23:19:18;98143.75;;;16.00;67.31
22311;BME280;11323;49.610;11.016;2023-09-19T23:24:30;98144.13;;;15.97;67.76
22311;BME280;11323;49.610;11.016;2023-09-19T23:29:31;98151.81;;;15.98;67.15
22311;BME280;11323;49.610;11.016;2023-09-19T23:34:33;98155.97;;;15.93;67.30
22311;BME280;11323;49.610;11.016;2023-09-19T23:39:34;98160.97;;;15.87;67.66
22311;BME280;11323;49.610;11.016;2023-09-19T23:44:41;98158.50;;;15.86;67.74
22311;BME280;11323;49.610;11.016;2023-09-19T23:49:48;98162.28;;;15.83;67.69
22311;BME280;11323;49.610;11.016;2023-09-19T23:54:49;98153.94;;;15.80;67.54
22311;BME280;11323;49.610;11.016;2023-09-19T23:59:50;98163.47;;;15.81;67.28
